METAR - Ísland

Uppfært síðast 21.10.2018 - kl. 06:26

SIGMET síðustu 6 klst.

BIRD SIGMET A02 VALID 210500/210830 BIRK- BIRD REYKJAVIK CTA SEV TURB FCST WI N6450 W02040 - N6620 W02130 - N6620 W01350 - N6350 W01550 - N6450 W02040 SFC/FL100 STNR NC
BIRD SIGMET A01 VALID 210100/210500 BIRK- BIRD REYKJAVIK CTA SEV TURB FCST WI N6450 W02140 - N6620 W02150 - N6620 W01520 - N6410 W01530 - N6450 W02140 SFC/FL100 STNR NC

METAR síðustu 3 klst

Flugv.TímiSkeyti
BIAR2018-10-21 06.00METAR BIAR 210600Z 18020G30KT 9999 -DZ FEW041 04/M00 Q0984
BIAR2018-10-21 05.00METAR BIAR 210500Z 18026G46KT 9999 -RA BKN046 05/M01 Q0983
BIAR2018-10-21 04.00METAR BIAR 210400Z 18037G50KT 9999 FEW042 BKN050 OVC057 05/00 Q0982
BIEG2018-10-21 06.00METAR BIEG 210600Z 19021G31KT CAVOK 05/M06 Q0989
BIEG2018-10-21 05.00METAR BIEG 210500Z 21021G31KT CAVOK 05/M05 Q0989
BIEG2018-10-21 04.00METAR BIEG 210400Z 21022G32KT CAVOK 06/M04 Q0987
BIKF2018-10-21 06.00METAR BIKF 210600Z 23030G41KT 9999 VCSH FEW010 BKN055 OVC100 04/M01 Q0992
BIKF2018-10-21 05.30METAR BIKF 210530Z 24033G44KT 9999 -RA FEW010 BKN033 OVC060 04/M01 Q0992
BIKF2018-10-21 05.00METAR BIKF 210500Z 24031G41KT 9999 -RA FEW015 BKN036 OVC095 05/M02 Q0991
BIKF2018-10-21 04.30METAR BIKF 210430Z 24032G42KT 9999 VCSH FEW015 BKN050 OVC100 05/M01 Q0991
BIKF2018-10-21 04.00METAR BIKF 210400Z 24035KT 9999 VCSH FEW013 BKN036 OVC065 05/M02 Q0991
BIKF2018-10-21 03.30METAR BIKF 210330Z 23033G49KT 9999 VCSH FEW013 BKN040 05/M02 Q0990
BIRK2018-10-21 06.00METAR BIRK 210600Z 23030G41KT 9999 FEW028CB BKN036 OVC050 05/M02 Q0992 RESHRA
BIRK2018-10-21 05.00METAR BIRK 210500Z 23029G39KT 9999 FEW035 BKN057 OVC070 05/M01 Q0992
BIRK2018-10-21 04.00METAR BIRK 210400Z 23030G41KT 9999 SCT032 BKN048 05/M02 Q0991

Textaspár eru skrifaðar af vakthafandi veðurfræðingi á Veðurstofu Íslands.




Aðrir tengdir vefir



Ekkert skjal tengt
Þetta vefsvæði byggir á Eplica